Terminal Aerodrome Forecast
Issued by NWS Topeka, KS

Home | Current Version | Previous Version | Graphics & Text | Print | Product List | Glossary On
Versions: 1 2 3 4 5 6 7 8 9 10 11 12 13
000
FTUS43 KTOP 271600 AAC
TAFTOP
TAF AMD
KTOP 271651Z 2717/2812 21007KT P6SM BKN200
     FM271800 34010G18KT P6SM BKN200
     FM272100 31011KT P6SM BKN040
     FM280600 30005KT P6SM BKN150=

USA.gov is the U.S. government's official web portal to all federal, state and local government web resources and services.